Aviation Digital Data Service (ADDS)

Output produced by METARs form (0025 UTC 28 August 2016)
found at http://aviationweather.gov/adds/metars/
 
KPHL 272343Z 2800/2906 08007KT P6SM BKN250 
     FM280200 VRB03KT P6SM SKC 
     FM281400 14006KT P6SM FEW040